Time;durP1;ratioP1;P1;durP2;ratioP2;P2;SDS_P1;SDS_P2;PMS_P1;PMS_P2;Temp;Humidity;BMP_temperature;BMP_pressure;BME280_temperature;BME280_humidity;BME280_pressure;Samples;Min_cycle;Max_cycle;Signal;HPM_P1;HPM_P2
2022/03/24 00:01:59;;;;;;;21.70;13.33;;;;;;;;;;4991188;28;20290;-66
2022/03/24 00:04:26;;;;;;;19.70;13.10;;;;;;;;;;5006262;28;20207;-65
2022/03/24 00:06:54;;;;;;;18.27;13.20;;;;;;;;;;4999362;28;20221;-64
2022/03/24 00:09:21;;;;;;;18.17;12.63;;;;;;;;;;5007587;28;20252;-64
2022/03/24 00:11:48;;;;;;;20.37;12.40;;;;;;;;;;5006758;28;20623;-63
2022/03/24 00:14:18;;;;;;;20.03;12.20;;;;;;;;;;4985212;28;20260;-65
2022/03/24 00:16:46;;;;;;;17.80;11.90;;;;;;;;;;4995125;28;20237;-63
2022/03/24 00:19:16;;;;;;;17.43;12.30;;;;;;;;;;4994060;28;20214;-67
2022/03/24 00:21:44;;;;;;;15.37;11.63;;;;;;;;;;5005818;28;20210;-63
2022/03/24 00:24:11;;;;;;;16.23;12.00;;;;;;;;;;4986936;28;20202;-63
2022/03/24 00:26:39;;;;;;;18.00;12.73;;;;;;;;;;4988834;28;21281;-65
2022/03/24 00:29:08;;;;;;;17.93;12.30;;;;;;;;;;4987404;28;20210;-64
2022/03/24 00:31:35;;;;;;;16.80;13.10;;;;;;;;;;4985923;28;20610;-64
2022/03/24 00:34:02;;;;;;;19.37;13.40;;;;;;;;;;5006675;28;20213;-64
2022/03/24 00:36:30;;;;;;;20.00;13.83;;;;;;;;;;5008579;28;20209;-65
2022/03/24 00:38:57;;;;;;;20.37;14.07;;;;;;;;;;4995197;28;20215;-63
2022/03/24 00:41:25;;;;;;;17.43;13.13;;;;;;;;;;4994591;28;20230;-63
2022/03/24 00:43:52;;;;;;;17.87;13.50;;;;;;;;;;4995455;28;20221;-64
2022/03/24 00:46:23;;;;;;;15.57;12.03;;;;;;;;;;4997746;28;20208;-64
2022/03/24 00:48:51;;;;;;;20.20;13.50;;;;;;;;;;5006887;28;20260;-65
2022/03/24 00:51:18;;;;;;;18.63;12.90;;;;;;;;;;4990664;28;20626;-65
2022/03/24 00:53:49;;;;;;;16.10;11.90;;;;;;;;;;5038070;28;20213;-64
2022/03/24 00:56:20;;;;;;;16.40;11.37;;;;;;;;;;5024329;28;20209;-63
2022/03/24 00:58:47;;;;;;;16.40;11.93;;;;;;;;;;5005391;28;20261;-63
2022/03/24 01:01:15;;;;;;;17.30;12.13;;;;;;;;;;4994587;28;20662;-63
2022/03/24 01:03:43;;;;;;;17.70;12.30;;;;;;;;;;4978881;28;20205;-65
2022/03/24 01:06:11;;;;;;;14.57;12.23;;;;;;;;;;5009280;28;20212;-65
2022/03/24 01:08:38;;;;;;;17.07;12.13;;;;;;;;;;5000105;28;20221;-64
2022/03/24 01:11:05;;;;;;;18.67;13.23;;;;;;;;;;4983761;28;20229;-64
2022/03/24 01:13:34;;;;;;;19.60;14.17;;;;;;;;;;4998075;28;21109;-64
2022/03/24 01:16:03;;;;;;;23.73;15.37;;;;;;;;;;4989447;28;20212;-65
2022/03/24 01:18:35;;;;;;;22.53;14.50;;;;;;;;;;4996305;28;20229;-65
2022/03/24 01:21:03;;;;;;;19.57;13.97;;;;;;;;;;5004623;28;20279;-64
2022/03/24 01:23:32;;;;;;;24.57;14.30;;;;;;;;;;5014470;28;20660;-63
2022/03/24 01:26:00;;;;;;;22.27;14.00;;;;;;;;;;4989821;28;20209;-64
2022/03/24 01:28:29;;;;;;;19.90;13.10;;;;;;;;;;5006523;28;20282;-65
2022/03/24 01:30:57;;;;;;;20.20;14.17;;;;;;;;;;4983186;28;20247;-65
2022/03/24 01:33:24;;;;;;;24.83;14.77;;;;;;;;;;5006415;28;20212;-63
2022/03/24 01:35:52;;;;;;;18.73;14.40;;;;;;;;;;5003502;28;20291;-65
2022/03/24 01:38:21;;;;;;;19.77;14.23;;;;;;;;;;4994251;28;20216;-62
2022/03/24 01:40:49;;;;;;;19.93;14.77;;;;;;;;;;4987304;28;20229;-64
2022/03/24 01:43:17;;;;;;;22.57;14.80;;;;;;;;;;5013995;28;20205;-64
2022/03/24 01:45:45;;;;;;;24.33;15.10;;;;;;;;;;5011039;28;20205;-65
2022/03/24 01:48:14;;;;;;;20.43;14.33;;;;;;;;;;5012803;28;20226;-64
2022/03/24 01:50:42;;;;;;;23.57;14.53;;;;;;;;;;5011969;28;20233;-65
2022/03/24 01:53:11;;;;;;;22.40;15.00;;;;;;;;;;5001189;28;20295;-64
2022/03/24 01:55:39;;;;;;;21.83;14.50;;;;;;;;;;5001152;28;20208;-65
2022/03/24 01:58:06;;;;;;;24.00;14.97;;;;;;;;;;4991311;28;20232;-65
2022/03/24 02:00:34;;;;;;;23.03;14.93;;;;;;;;;;4999810;28;20233;-64
2022/03/24 02:03:04;;;;;;;21.93;13.90;;;;;;;;;;5012211;28;20205;-64
2022/03/24 02:05:32;;;;;;;22.83;14.30;;;;;;;;;;4993561;28;20225;-63
2022/03/24 02:08:03;;;;;;;19.53;13.63;;;;;;;;;;5016977;28;20205;-64
2022/03/24 02:10:32;;;;;;;18.50;12.47;;;;;;;;;;5009337;28;20230;-64
2022/03/24 02:12:59;;;;;;;18.43;12.57;;;;;;;;;;4995119;28;20206;-64
2022/03/24 02:15:28;;;;;;;18.67;11.97;;;;;;;;;;4984846;28;21178;-65
2022/03/24 02:17:56;;;;;;;16.97;12.30;;;;;;;;;;5011747;28;20221;-64
2022/03/24 02:20:25;;;;;;;17.83;11.87;;;;;;;;;;5006900;28;20220;-64
2022/03/24 02:22:53;;;;;;;19.20;12.37;;;;;;;;;;5003436;28;20209;-63
2022/03/24 02:25:22;;;;;;;15.83;11.60;;;;;;;;;;5000466;28;20252;-65
2022/03/24 02:27:52;;;;;;;18.37;11.77;;;;;;;;;;5007503;28;20747;-63
2022/03/24 02:30:20;;;;;;;19.90;11.60;;;;;;;;;;5012896;28;20224;-63
2022/03/24 02:32:48;;;;;;;19.33;11.70;;;;;;;;;;5014635;28;20330;-65
2022/03/24 02:35:16;;;;;;;15.67;10.83;;;;;;;;;;5011401;28;20263;-64
2022/03/24 02:37:43;;;;;;;18.03;11.33;;;;;;;;;;4986455;28;20729;-64
2022/03/24 02:40:12;;;;;;;19.30;12.57;;;;;;;;;;4997254;28;20284;-63
2022/03/24 02:42:40;;;;;;;18.87;12.57;;;;;;;;;;4990856;28;20205;-63
2022/03/24 02:45:08;;;;;;;24.20;14.53;;;;;;;;;;4999520;28;20207;-64
2022/03/24 02:47:36;;;;;;;23.60;14.90;;;;;;;;;;5013698;28;20212;-64
2022/03/24 02:50:04;;;;;;;22.30;14.37;;;;;;;;;;4994056;28;20239;-64
2022/03/24 02:52:31;;;;;;;28.23;14.87;;;;;;;;;;5011879;28;20212;-64
2022/03/24 02:54:59;;;;;;;21.30;14.27;;;;;;;;;;5011976;28;20213;-64
2022/03/24 02:57:27;;;;;;;18.53;13.53;;;;;;;;;;5001162;28;20248;-64
2022/03/24 02:59:54;;;;;;;20.70;13.70;;;;;;;;;;5009887;28;20723;-62
2022/03/24 03:02:22;;;;;;;18.80;13.43;;;;;;;;;;4995394;28;20241;-65
2022/03/24 03:04:49;;;;;;;19.63;13.23;;;;;;;;;;5045444;28;20232;-64
2022/03/24 03:07:17;;;;;;;22.40;13.27;;;;;;;;;;5009389;28;20207;-65
2022/03/24 03:09:45;;;;;;;21.27;13.97;;;;;;;;;;4998815;28;20931;-64
2022/03/24 03:12:12;;;;;;;20.50;12.87;;;;;;;;;;5000855;28;20263;-63
2022/03/24 03:14:41;;;;;;;20.07;13.20;;;;;;;;;;5013761;28;20212;-65
2022/03/24 03:17:09;;;;;;;20.37;11.90;;;;;;;;;;5014384;28;20203;-64
2022/03/24 03:19:39;;;;;;;18.50;12.50;;;;;;;;;;4998434;28;20325;-63
2022/03/24 03:22:08;;;;;;;20.80;13.30;;;;;;;;;;5007068;28;20212;-64
2022/03/24 03:24:35;;;;;;;21.27;13.87;;;;;;;;;;4993850;28;20211;-64
2022/03/24 03:27:04;;;;;;;27.40;15.33;;;;;;;;;;5010272;28;20202;-64
2022/03/24 03:29:32;;;;;;;18.53;12.33;;;;;;;;;;5005575;28;20239;-64
2022/03/24 03:32:00;;;;;;;19.43;12.77;;;;;;;;;;4985722;28;20664;-65
2022/03/24 03:34:28;;;;;;;19.37;12.80;;;;;;;;;;5009563;28;20218;-65
2022/03/24 03:36:56;;;;;;;16.30;11.83;;;;;;;;;;5004131;28;20206;-64
2022/03/24 03:39:24;;;;;;;17.47;12.13;;;;;;;;;;4989282;28;20301;-65
2022/03/24 03:41:52;;;;;;;18.83;12.17;;;;;;;;;;5003325;28;20199;-64
2022/03/24 03:44:19;;;;;;;19.83;12.90;;;;;;;;;;4990186;28;20226;-64
2022/03/24 03:46:47;;;;;;;18.43;12.30;;;;;;;;;;5010865;28;20221;-64
2022/03/24 03:49:16;;;;;;;19.37;12.30;;;;;;;;;;4999422;28;21223;-64
2022/03/24 03:51:43;;;;;;;23.30;14.07;;;;;;;;;;4991334;28;20207;-63
2022/03/24 03:54:10;;;;;;;20.03;13.27;;;;;;;;;;5011119;28;20207;-64
2022/03/24 03:56:38;;;;;;;22.27;13.37;;;;;;;;;;4999040;28;20552;-64
2022/03/24 03:59:06;;;;;;;20.30;13.50;;;;;;;;;;5000164;28;20242;-64
2022/03/24 04:01:34;;;;;;;18.17;13.00;;;;;;;;;;4993157;28;20216;-63
2022/03/24 04:04:02;;;;;;;20.40;13.27;;;;;;;;;;4993427;28;20744;-64
2022/03/24 04:06:29;;;;;;;19.23;13.00;;;;;;;;;;4998937;28;20222;-64
2022/03/24 04:08:56;;;;;;;19.83;12.50;;;;;;;;;;5008870;28;20257;-65
2022/03/24 04:11:25;;;;;;;19.63;12.80;;;;;;;;;;4998409;28;20234;-64
2022/03/24 04:13:53;;;;;;;18.97;13.20;;;;;;;;;;5003933;28;20844;-64
2022/03/24 04:16:22;;;;;;;19.63;13.03;;;;;;;;;;4999370;28;20346;-64
2022/03/24 04:18:50;;;;;;;17.80;12.07;;;;;;;;;;5000571;28;20233;-63
2022/03/24 04:21:18;;;;;;;18.50;13.00;;;;;;;;;;4990408;28;20692;-63
2022/03/24 04:23:46;;;;;;;22.97;13.43;;;;;;;;;;5016488;28;20362;-64
2022/03/24 04:26:13;;;;;;;19.97;13.30;;;;;;;;;;5014895;28;20661;-64
2022/03/24 04:28:44;;;;;;;18.90;12.57;;;;;;;;;;5012737;28;20222;-65
2022/03/24 04:31:13;;;;;;;21.23;12.60;;;;;;;;;;5012004;28;20219;-65
2022/03/24 04:33:40;;;;;;;18.50;13.17;;;;;;;;;;4993431;28;20214;-62
2022/03/24 04:36:08;;;;;;;18.93;13.30;;;;;;;;;;5009021;28;20207;-65
2022/03/24 04:38:37;;;;;;;17.80;12.43;;;;;;;;;;4985673;28;20231;-65
2022/03/24 04:41:05;;;;;;;21.63;12.77;;;;;;;;;;5005257;28;20254;-63
2022/03/24 04:43:34;;;;;;;20.50;13.43;;;;;;;;;;5011176;28;20220;-64
2022/03/24 04:46:01;;;;;;;21.60;12.67;;;;;;;;;;4981377;28;20203;-63
2022/03/24 04:48:35;;;;;;;18.07;12.93;;;;;;;;;;5002268;28;20218;-63
2022/03/24 04:51:05;;;;;;;18.13;12.37;;;;;;;;;;5014615;28;20218;-63
2022/03/24 04:53:32;;;;;;;18.83;12.70;;;;;;;;;;5010075;28;20207;-64
2022/03/24 04:56:00;;;;;;;20.37;12.60;;;;;;;;;;5015888;28;20211;-63
2022/03/24 04:58:27;;;;;;;20.70;13.40;;;;;;;;;;4991223;28;20632;-64
2022/03/24 05:00:55;;;;;;;22.70;13.87;;;;;;;;;;4997466;28;20220;-62
2022/03/24 05:03:22;;;;;;;23.67;13.37;;;;;;;;;;5010225;28;20233;-63
2022/03/24 05:05:50;;;;;;;21.23;13.23;;;;;;;;;;5013587;28;20207;-63
2022/03/24 05:08:17;;;;;;;19.90;12.90;;;;;;;;;;5012153;28;20218;-63
2022/03/24 05:10:45;;;;;;;19.47;12.67;;;;;;;;;;5004052;28;20226;-62
2022/03/24 05:13:12;;;;;;;19.23;12.83;;;;;;;;;;5009905;28;20199;-64
2022/03/24 05:15:40;;;;;;;19.27;13.30;;;;;;;;;;5007931;28;20534;-64
2022/03/24 05:18:08;;;;;;;19.57;12.77;;;;;;;;;;5007577;28;20229;-64
2022/03/24 05:20:36;;;;;;;20.53;13.17;;;;;;;;;;5001264;28;20227;-65
2022/03/24 05:23:03;;;;;;;18.13;13.23;;;;;;;;;;5007953;28;20208;-64
2022/03/24 05:25:31;;;;;;;20.67;13.23;;;;;;;;;;5015730;28;20207;-63
2022/03/24 05:27:59;;;;;;;20.37;13.53;;;;;;;;;;4983910;28;20929;-64
2022/03/24 05:30:27;;;;;;;19.07;12.83;;;;;;;;;;5004862;28;20470;-65
2022/03/24 05:32:54;;;;;;;18.83;13.13;;;;;;;;;;4997146;28;20207;-63
2022/03/24 05:35:22;;;;;;;18.63;12.97;;;;;;;;;;5007734;28;20257;-64
2022/03/24 05:37:49;;;;;;;18.00;13.10;;;;;;;;;;4997647;28;20218;-64
2022/03/24 05:40:17;;;;;;;22.13;14.13;;;;;;;;;;5021439;28;20231;-64
2022/03/24 05:42:44;;;;;;;19.47;13.70;;;;;;;;;;4998837;28;20211;-62
2022/03/24 05:45:12;;;;;;;20.57;14.17;;;;;;;;;;5007476;28;20208;-65
2022/03/24 05:47:39;;;;;;;23.83;15.07;;;;;;;;;;5009524;28;20204;-64
2022/03/24 05:50:07;;;;;;;24.43;15.17;;;;;;;;;;4996071;28;20248;-64
2022/03/24 05:52:35;;;;;;;24.20;15.53;;;;;;;;;;5016476;28;20716;-63
2022/03/24 05:55:03;;;;;;;24.70;15.60;;;;;;;;;;5012224;28;20257;-64
2022/03/24 05:57:30;;;;;;;23.07;15.93;;;;;;;;;;5000593;28;20250;-63
2022/03/24 05:59:58;;;;;;;25.90;17.53;;;;;;;;;;5011031;28;20313;-63
2022/03/24 06:02:26;;;;;;;21.80;15.27;;;;;;;;;;5010502;28;20216;-63
2022/03/24 06:04:54;;;;;;;24.17;16.47;;;;;;;;;;4997726;28;20876;-63
2022/03/24 06:07:22;;;;;;;22.07;15.70;;;;;;;;;;5005373;28;20218;-63
2022/03/24 06:09:49;;;;;;;23.83;15.67;;;;;;;;;;4989879;28;20235;-63
2022/03/24 06:12:16;;;;;;;23.37;15.43;;;;;;;;;;4997836;28;20207;-62
2022/03/24 06:14:44;;;;;;;18.87;14.37;;;;;;;;;;4990529;28;20219;-64
2022/03/24 06:17:11;;;;;;;26.13;15.67;;;;;;;;;;4977901;28;20212;-62
2022/03/24 06:19:39;;;;;;;21.43;13.73;;;;;;;;;;5003757;28;20231;-64
2022/03/24 06:22:07;;;;;;;20.20;13.77;;;;;;;;;;5008712;28;20210;-63
2022/03/24 06:24:35;;;;;;;22.13;13.93;;;;;;;;;;4983892;28;20211;-63
2022/03/24 06:27:02;;;;;;;21.13;14.20;;;;;;;;;;5010641;28;20271;-64
2022/03/24 06:29:30;;;;;;;25.17;15.20;;;;;;;;;;4999104;28;20236;-63
2022/03/24 06:31:57;;;;;;;25.73;15.63;;;;;;;;;;5018770;28;20244;-64
2022/03/24 06:34:25;;;;;;;22.93;14.50;;;;;;;;;;5019126;28;20208;-63
2022/03/24 06:36:54;;;;;;;24.70;17.20;;;;;;;;;;5011499;28;20205;-63
2022/03/24 06:39:22;;;;;;;31.63;19.63;;;;;;;;;;5013447;28;20228;-65
2022/03/24 06:41:49;;;;;;;30.43;18.27;;;;;;;;;;5005868;28;20213;-65
2022/03/24 06:44:19;;;;;;;26.07;17.80;;;;;;;;;;5008486;28;20261;-64
2022/03/24 06:46:46;;;;;;;27.00;18.50;;;;;;;;;;5001126;28;20234;-63
2022/03/24 06:49:15;;;;;;;23.73;15.53;;;;;;;;;;5019514;28;20722;-63
2022/03/24 06:51:42;;;;;;;20.67;13.93;;;;;;;;;;5006084;28;20565;-62
2022/03/24 06:54:11;;;;;;;25.03;14.73;;;;;;;;;;5014696;28;20574;-64
2022/03/24 06:56:38;;;;;;;21.40;15.13;;;;;;;;;;4998921;28;20225;-63
2022/03/24 06:59:06;;;;;;;23.63;15.03;;;;;;;;;;4998562;28;20244;-63
2022/03/24 07:01:33;;;;;;;22.63;14.93;;;;;;;;;;5018989;28;20215;-63
2022/03/24 07:04:01;;;;;;;26.03;15.37;;;;;;;;;;4997816;28;20287;-63
2022/03/24 07:06:28;;;;;;;23.17;14.43;;;;;;;;;;5021020;28;20698;-64
2022/03/24 07:08:56;;;;;;;18.70;13.77;;;;;;;;;;5020800;28;20217;-63
2022/03/24 07:11:23;;;;;;;22.77;13.33;;;;;;;;;;5008537;28;20499;-63
2022/03/24 07:13:51;;;;;;;19.40;13.30;;;;;;;;;;4995137;28;20604;-61
2022/03/24 07:16:18;;;;;;;17.70;12.77;;;;;;;;;;5021470;28;20257;-63
2022/03/24 07:18:46;;;;;;;18.70;11.90;;;;;;;;;;5019233;28;20233;-63
2022/03/24 07:21:14;;;;;;;18.80;12.80;;;;;;;;;;5000775;28;20227;-63
2022/03/24 07:23:41;;;;;;;16.93;12.43;;;;;;;;;;5001538;28;20321;-64
2022/03/24 07:26:09;;;;;;;16.60;11.37;;;;;;;;;;4996311;28;20203;-64
2022/03/24 07:28:37;;;;;;;17.40;12.00;;;;;;;;;;5001175;28;20246;-64
2022/03/24 07:31:11;;;;;;;16.87;11.77;;;;;;;;;;5002220;28;20634;-64
2022/03/24 07:33:39;;;;;;;15.50;11.53;;;;;;;;;;5016946;28;20656;-64
2022/03/24 07:36:07;;;;;;;20.63;12.60;;;;;;;;;;4996736;28;20253;-64
2022/03/24 07:38:34;;;;;;;19.40;12.10;;;;;;;;;;5006315;28;20222;-63
2022/03/24 07:41:02;;;;;;;15.37;11.00;;;;;;;;;;5011171;28;20223;-62
2022/03/24 07:43:30;;;;;;;17.30;12.27;;;;;;;;;;5008239;28;20620;-64
2022/03/24 07:45:57;;;;;;;17.50;12.67;;;;;;;;;;4999677;28;20732;-64
2022/03/24 07:48:27;;;;;;;17.70;12.57;;;;;;;;;;4998758;28;20889;-64
2022/03/24 07:50:56;;;;;;;16.53;12.10;;;;;;;;;;5003928;28;20297;-64
2022/03/24 07:53:30;;;;;;;17.27;13.00;;;;;;;;;;4996736;28;20226;-64
2022/03/24 07:55:58;;;;;;;16.57;11.80;;;;;;;;;;4999770;28;20211;-64
2022/03/24 07:58:26;;;;;;;17.77;12.33;;;;;;;;;;5009940;28;20200;-63
2022/03/24 08:00:57;;;;;;;17.77;12.73;;;;;;;;;;5004105;28;20665;-63
2022/03/24 08:03:24;;;;;;;20.90;13.27;;;;;;;;;;4982560;28;20200;-64
2022/03/24 08:05:53;;;;;;;21.37;15.00;;;;;;;;;;5010431;28;20213;-64
2022/03/24 08:08:20;;;;;;;22.37;14.33;;;;;;;;;;5005544;28;20301;-64
2022/03/24 08:10:49;;;;;;;20.67;14.57;;;;;;;;;;4995897;28;20227;-62
2022/03/24 08:13:17;;;;;;;22.20;13.30;;;;;;;;;;5013543;28;20207;-62
2022/03/24 08:15:45;;;;;;;19.73;13.90;;;;;;;;;;5005531;28;20215;-62
2022/03/24 08:18:12;;;;;;;21.33;13.27;;;;;;;;;;5011384;28;20215;-63
2022/03/24 08:20:40;;;;;;;24.37;13.40;;;;;;;;;;5015046;28;20237;-61
2022/03/24 08:23:08;;;;;;;25.77;15.67;;;;;;;;;;5014330;28;20202;-64
2022/03/24 08:25:36;;;;;;;21.17;14.33;;;;;;;;;;5016671;28;20221;-63
2022/03/24 08:28:04;;;;;;;24.50;14.63;;;;;;;;;;5004318;28;20650;-63
2022/03/24 08:30:32;;;;;;;25.83;14.53;;;;;;;;;;5013165;28;20236;-64
2022/03/24 08:33:00;;;;;;;22.90;13.80;;;;;;;;;;4997381;28;20218;-64
2022/03/24 08:35:27;;;;;;;29.40;17.47;;;;;;;;;;4998307;28;20199;-64
2022/03/24 08:37:55;;;;;;;18.47;13.03;;;;;;;;;;4983112;28;20199;-64
2022/03/24 08:40:23;;;;;;;20.97;12.97;;;;;;;;;;4994353;28;20313;-64
2022/03/24 08:42:51;;;;;;;17.00;13.10;;;;;;;;;;4994442;28;20210;-64
2022/03/24 08:45:18;;;;;;;17.73;12.50;;;;;;;;;;5016663;28;20794;-64
2022/03/24 08:47:45;;;;;;;17.53;11.83;;;;;;;;;;4988418;28;20724;-63
2022/03/24 08:50:13;;;;;;;15.77;12.53;;;;;;;;;;4999836;28;20222;-64
2022/03/24 08:52:41;;;;;;;17.43;13.07;;;;;;;;;;5001978;28;20273;-64
2022/03/24 08:55:11;;;;;;;15.03;12.27;;;;;;;;;;4998800;28;20203;-64
2022/03/24 08:57:38;;;;;;;17.87;12.07;;;;;;;;;;4999194;28;20206;-63
2022/03/24 09:00:15;;;;;;;15.40;11.73;;;;;;;;;;5021019;28;20227;-63
2022/03/24 09:02:44;;;;;;;13.73;10.50;;;;;;;;;;4997509;28;20830;-64
2022/03/24 09:05:12;;;;;;;14.43;9.87;;;;;;;;;;5019084;28;20199;-63
2022/03/24 09:07:39;;;;;;;13.43;10.20;;;;;;;;;;5013075;28;20199;-64
2022/03/24 09:10:07;;;;;;;13.77;10.43;;;;;;;;;;5013259;28;20226;-63
2022/03/24 09:12:37;;;;;;;13.53;11.47;;;;;;;;;;5012076;28;20385;-64
2022/03/24 09:15:06;;;;;;;16.47;11.03;;;;;;;;;;5009913;28;20207;-63
2022/03/24 09:17:34;;;;;;;15.10;11.37;;;;;;;;;;5019138;28;20207;-64
2022/03/24 09:20:02;;;;;;;13.57;10.90;;;;;;;;;;5032065;28;20226;-64
2022/03/24 09:22:30;;;;;;;13.60;11.13;;;;;;;;;;5002113;28;20270;-64
2022/03/24 09:24:58;;;;;;;11.80;9.17;;;;;;;;;;5024665;28;20210;-63
2022/03/24 09:27:25;;;;;;;11.87;9.40;;;;;;;;;;5011088;28;20199;-64
2022/03/24 09:29:52;;;;;;;11.50;9.17;;;;;;;;;;5023633;28;20231;-64
2022/03/24 09:32:20;;;;;;;12.10;9.40;;;;;;;;;;5009007;28;20222;-63
2022/03/24 09:34:48;;;;;;;13.77;8.63;;;;;;;;;;4999985;28;20202;-65
2022/03/24 09:37:18;;;;;;;11.97;8.37;;;;;;;;;;5004670;28;20348;-64
2022/03/24 09:39:46;;;;;;;8.17;7.30;;;;;;;;;;4996067;28;20347;-65
2022/03/24 09:42:13;;;;;;;8.50;7.70;;;;;;;;;;5021356;28;20206;-64
2022/03/24 09:44:44;;;;;;;9.60;8.23;;;;;;;;;;4999443;28;20315;-64
2022/03/24 09:47:13;;;;;;;8.47;7.47;;;;;;;;;;4998698;28;20288;-64
2022/03/24 09:49:41;;;;;;;9.70;8.17;;;;;;;;;;5008349;28;20226;-65
2022/03/24 09:52:10;;;;;;;12.10;9.30;;;;;;;;;;5010189;28;20211;-64
2022/03/24 09:54:38;;;;;;;13.13;9.23;;;;;;;;;;5016300;28;20215;-65
2022/03/24 09:57:07;;;;;;;11.03;9.03;;;;;;;;;;4996348;28;20281;-65
2022/03/24 09:59:34;;;;;;;13.63;10.03;;;;;;;;;;4994961;28;20316;-64
2022/03/24 10:02:03;;;;;;;11.80;9.83;;;;;;;;;;4995115;28;20234;-64
2022/03/24 10:04:46;;;;;;;16.10;10.87;;;;;;;;;;5021085;28;20297;-65
2022/03/24 10:07:16;;;;;;;13.27;10.30;;;;;;;;;;5023214;28;20298;-64
2022/03/24 10:09:45;;;;;;;15.00;11.03;;;;;;;;;;4991692;28;21835;-65
2022/03/24 10:12:20;;;;;;;14.30;11.43;;;;;;;;;;5010714;28;20576;-65
2022/03/24 10:15:01;;;;;;;15.60;11.00;;;;;;;;;;5009666;28;20422;-63
2022/03/24 10:17:29;;;;;;;15.20;11.70;;;;;;;;;;5013352;28;20218;-64
2022/03/24 10:19:58;;;;;;;15.70;12.03;;;;;;;;;;5012281;28;20234;-65
2022/03/24 10:22:26;;;;;;;13.77;11.77;;;;;;;;;;4988479;28;20198;-62
2022/03/24 10:24:53;;;;;;;16.33;11.17;;;;;;;;;;5014432;28;20211;-63
2022/03/24 10:27:25;;;;;;;12.53;10.40;;;;;;;;;;5020010;28;20242;-63
2022/03/24 10:30:00;;;;;;;13.43;10.80;;;;;;;;;;4999895;28;20223;-65
2022/03/24 10:32:29;;;;;;;11.87;9.57;;;;;;;;;;4991818;28;20358;-64
2022/03/24 10:34:57;;;;;;;11.47;9.47;;;;;;;;;;4999964;28;20203;-65
2022/03/24 10:37:25;;;;;;;12.17;10.13;;;;;;;;;;5027649;28;20211;-64
2022/03/24 10:39:58;;;;;;;13.10;9.47;;;;;;;;;;5006058;28;20231;-64
2022/03/24 10:42:27;;;;;;;10.23;9.13;;;;;;;;;;5018459;28;20595;-63
2022/03/24 10:45:03;;;;;;;15.50;9.47;;;;;;;;;;4994848;28;20254;-64
2022/03/24 10:47:38;;;;;;;11.43;9.80;;;;;;;;;;4996706;28;20787;-63
2022/03/24 10:50:24;;;;;;;14.77;10.30;;;;;;;;;;5020346;28;20229;-63
2022/03/24 10:52:53;;;;;;;12.03;9.90;;;;;;;;;;5002024;28;20206;-64
2022/03/24 10:55:40;;;;;;;12.17;9.93;;;;;;;;;;5002254;28;20261;-63
2022/03/24 10:58:31;;;;;;;14.73;10.17;;;;;;;;;;4999030;28;20203;-65
2022/03/24 11:01:00;;;;;;;10.57;9.47;;;;;;;;;;5012718;28;20285;-64
2022/03/24 11:03:28;;;;;;;11.53;9.83;;;;;;;;;;5027350;28;20221;-64
2022/03/24 11:06:29;;;;;;;10.80;9.07;;;;;;;;;;5007660;28;20203;-67
2022/03/24 11:09:01;;;;;;;13.48;8.77;;;;;;;;;;4980381;28;20210;-64
2022/03/24 11:11:30;;;;;;;9.80;8.80;;;;;;;;;;5019335;28;21271;-65
2022/03/24 11:13:57;;;;;;;11.25;9.52;;;;;;;;;;5001958;28;20215;-64
2022/03/24 11:16:27;;;;;;;12.00;10.73;;;;;;;;;;5008783;28;20202;-65
2022/03/24 11:18:55;;;;;;;15.98;13.13;;;;;;;;;;5001106;28;20365;-65
2022/03/24 11:21:41;;;;;;;16.20;14.50;;;;;;;;;;5004776;28;20285;-65
2022/03/24 11:24:08;;;;;;;18.63;14.82;;;;;;;;;;5017181;28;20207;-66
2022/03/24 11:26:36;;;;;;;18.63;15.48;;;;;;;;;;5003037;28;20249;-65
2022/03/24 11:29:04;;;;;;;19.80;15.43;;;;;;;;;;5008011;28;20259;-65
2022/03/24 11:31:32;;;;;;;19.20;15.50;;;;;;;;;;5005783;28;20226;-65
2022/03/24 11:34:01;;;;;;;17.00;13.93;;;;;;;;;;5010131;28;20206;-64
2022/03/24 11:36:30;;;;;;;17.77;14.20;;;;;;;;;;5009587;28;20214;-65
2022/03/24 11:38:59;;;;;;;15.93;13.88;;;;;;;;;;5004481;28;20215;-65
2022/03/24 11:41:46;;;;;;;16.92;14.02;;;;;;;;;;5014162;28;20242;-63
2022/03/24 11:44:28;;;;;;;19.80;14.57;;;;;;;;;;5019290;28;20203;-65
2022/03/24 11:46:59;;;;;;;19.27;13.85;;;;;;;;;;5030244;28;20264;-65
2022/03/24 11:49:27;;;;;;;17.27;13.68;;;;;;;;;;5013685;28;20732;-65
2022/03/24 11:51:57;;;;;;;18.40;13.95;;;;;;;;;;5013139;28;20433;-65
2022/03/24 11:54:26;;;;;;;16.65;14.13;;;;;;;;;;5004757;28;20203;-65
2022/03/24 11:57:12;;;;;;;19.50;14.73;;;;;;;;;;5002507;28;20203;-65
2022/03/24 11:59:40;;;;;;;16.55;14.20;;;;;;;;;;5014348;28;20301;-64
2022/03/24 12:02:18;;;;;;;18.48;15.55;;;;;;;;;;5010440;28;20199;-66
2022/03/24 12:04:49;;;;;;;17.48;13.45;;;;;;;;;;5007462;28;20857;-66
2022/03/24 12:07:18;;;;;;;18.85;14.57;;;;;;;;;;5000347;28;20231;-64
2022/03/24 12:09:56;;;;;;;18.98;14.02;;;;;;;;;;5014976;28;20768;-63
2022/03/24 12:12:24;;;;;;;18.33;14.27;;;;;;;;;;5010946;28;20222;-64
2022/03/24 12:14:54;;;;;;;17.60;14.43;;;;;;;;;;5002853;28;20209;-65
2022/03/24 12:17:23;;;;;;;16.48;14.75;;;;;;;;;;5012259;28;20728;-65
2022/03/24 12:19:52;;;;;;;19.00;13.40;;;;;;;;;;5033885;28;20703;-64
2022/03/24 12:22:25;;;;;;;20.42;15.65;;;;;;;;;;5008630;28;20248;-64
2022/03/24 12:25:02;;;;;;;17.17;13.95;;;;;;;;;;5016198;28;20206;-64
2022/03/24 12:27:30;;;;;;;16.30;14.52;;;;;;;;;;5024645;28;20202;-65
2022/03/24 12:30:15;;;;;;;17.17;14.27;;;;;;;;;;5011037;28;20242;-65
2022/03/24 12:32:43;;;;;;;16.63;14.35;;;;;;;;;;5024834;28;20199;-64
2022/03/24 12:35:34;;;;;;;16.13;14.18;;;;;;;;;;5013292;28;20257;-64
2022/03/24 12:38:02;;;;;;;18.40;14.57;;;;;;;;;;4998487;28;20211;-66
2022/03/24 12:40:29;;;;;;;25.30;17.95;;;;;;;;;;5030221;28;20211;-64
2022/03/24 12:42:56;;;;;;;26.73;18.42;;;;;;;;;;5033302;28;20225;-65
2022/03/24 12:45:30;;;;;;;19.92;16.60;;;;;;;;;;5026030;28;20214;-64
2022/03/24 12:48:11;;;;;;;21.33;16.35;;;;;;;;;;5023867;28;20230;-64
2022/03/24 12:50:38;;;;;;;16.38;14.15;;;;;;;;;;5019723;28;20289;-65
2022/03/24 12:53:07;;;;;;;16.27;13.20;;;;;;;;;;5021749;28;20206;-65
2022/03/24 12:55:38;;;;;;;16.23;13.98;;;;;;;;;;5026893;28;20257;-66
2022/03/24 12:58:12;;;;;;;17.40;13.35;;;;;;;;;;5026909;28;20222;-65
2022/03/24 13:00:41;;;;;;;18.70;14.50;;;;;;;;;;5026181;28;20251;-63
2022/03/24 13:03:11;;;;;;;16.35;13.98;;;;;;;;;;4998425;28;20242;-64
2022/03/24 13:05:39;;;;;;;16.77;14.73;;;;;;;;;;5005836;28;20311;-65
2022/03/24 13:08:09;;;;;;;19.70;14.70;;;;;;;;;;5003717;28;20310;-64
2022/03/24 13:10:40;;;;;;;15.40;13.80;;;;;;;;;;5009184;28;20249;-63
2022/03/24 13:13:07;;;;;;;15.77;14.10;;;;;;;;;;4998385;28;20207;-66
2022/03/24 13:15:34;;;;;;;17.30;15.05;;;;;;;;;;5003363;28;20211;-63
2022/03/24 13:18:08;;;;;;;20.15;16.33;;;;;;;;;;5020055;28;20207;-64
2022/03/24 13:20:45;;;;;;;16.80;14.27;;;;;;;;;;5005522;28;20257;-66
2022/03/24 13:23:13;;;;;;;18.95;14.68;;;;;;;;;;5024555;28;20199;-65
2022/03/24 13:25:42;;;;;;;17.15;14.25;;;;;;;;;;5019391;28;20672;-63
2022/03/24 13:28:10;;;;;;;15.63;14.02;;;;;;;;;;5027667;28;20238;-65
2022/03/24 13:30:39;;;;;;;18.88;14.80;;;;;;;;;;5023407;28;20783;-66
2022/03/24 13:33:08;;;;;;;20.10;14.20;;;;;;;;;;4997980;28;20649;-65
2022/03/24 13:35:40;;;;;;;18.25;14.00;;;;;;;;;;5013435;28;20207;-64
2022/03/24 13:38:07;;;;;;;15.82;13.50;;;;;;;;;;5027073;28;20257;-63
2022/03/24 13:40:39;;;;;;;15.02;13.30;;;;;;;;;;5011160;28;20288;-64
2022/03/24 13:43:07;;;;;;;15.77;13.70;;;;;;;;;;5032597;28;20778;-66
2022/03/24 13:45:35;;;;;;;15.18;13.45;;;;;;;;;;5005650;28;20215;-65
2022/03/24 13:48:11;;;;;;;16.60;13.63;;;;;;;;;;5004009;28;20214;-66
2022/03/24 13:50:39;;;;;;;15.00;13.30;;;;;;;;;;5025148;28;20229;-65
2022/03/24 13:53:20;;;;;;;15.13;13.43;;;;;;;;;;5010272;28;20207;-66
2022/03/24 13:55:49;;;;;;;15.85;14.07;;;;;;;;;;5019783;28;20679;-65
2022/03/24 13:58:19;;;;;;;19.33;15.48;;;;;;;;;;5034405;28;20202;-65
2022/03/24 14:00:48;;;;;;;15.80;13.68;;;;;;;;;;5012794;28;20226;-67
2022/03/24 14:03:23;;;;;;;18.15;13.90;;;;;;;;;;5003103;28;20212;-65
2022/03/24 14:05:55;;;;;;;16.00;14.02;;;;;;;;;;5021523;28;20210;-65
2022/03/24 14:08:25;;;;;;;15.95;13.68;;;;;;;;;;5023217;28;20286;-63
2022/03/24 14:10:59;;;;;;;15.30;13.70;;;;;;;;;;5003017;28;20231;-63
2022/03/24 14:13:27;;;;;;;18.60;13.88;;;;;;;;;;5001138;28;20226;-64
2022/03/24 14:16:10;;;;;;;15.48;13.35;;;;;;;;;;5015851;28;20211;-62
2022/03/24 14:18:38;;;;;;;15.30;13.70;;;;;;;;;;5020664;28;20281;-65
2022/03/24 14:21:13;;;;;;;15.30;13.55;;;;;;;;;;5009093;28;20688;-64
2022/03/24 14:23:41;;;;;;;16.85;12.73;;;;;;;;;;5034235;28;20206;-64
2022/03/24 14:26:09;;;;;;;15.48;13.25;;;;;;;;;;5001492;28;20206;-66
2022/03/24 14:28:41;;;;;;;15.48;13.50;;;;;;;;;;5009245;28;20199;-64
2022/03/24 14:31:16;;;;;;;16.40;13.43;;;;;;;;;;5014334;28;20230;-63